Wednesday, October 22, 2014
01:44 UTC
  |  Log In   |  Register Free
Airport Search:

Indiana County/Jimmy Stewart Fld/ Airport
(KIDI)

Indiana County/Jimmy Stewart Fld/ Airport Diagram
No Airport Diagram Available

FAA data valid effective September 18, 2014 - November 13, 2014 (unless otherwise noted).

 
 
 
 
 
 
 
 
 
 
 
 
 
 

Current Aviation Weather for Indiana County/Jimmy Stewart Fld/ Airport (KIDI)

The most recent METAR observation for KIDI was updated at: 0110
METAR Summary (Translated METAR)
KIDI
220055Z AUTO VRB04KT 3SM BR BKN008 BKN022 OVC029 09/08 A3001 RMK A01
KJST
220102Z AUTO 32012KT 10SM OVC004 07/06 A2994 RMK AO2 T00720061
(22.7 nm SE from KIDI)
KLBE
220045Z 30008KT 7SM OVC008 M/M A3001
(25.5 nm SW from KIDI)
TAF Summary (Translated TAF)
KJST
(22.7 nm SE from KIDI)
220030Z 2200/2224 30008KT P6SM VCSH SCT022 OVC035 TEMPO 2200/2204 3SM -SHRA BKN008 OVC035 FM220400 34007KT 4SM -SHRA BR BKN004 OVC009 FM221600 33010KT P6SM VCSH OVC025
KLBE
(25.5 nm SW from KIDI)
212027Z 2120/2218 30010KT P6SM VCSH SCT015 BKN035 TEMPO 2120/2122 OVC025 FM220200 31008KT P6SM VCSH SCT010 BKN015 FM221200 33008KT P6SM BKN015 OVC025 FM221600 33009KT P6SM BKN025
  Airport Weather Conditions for KIDI

 Current Weather at IDI
48° F
Fog/Mist
Variable winds at 4.6 mph
IDI NOAA Radar

Pressure: 30.01 in
Humidity: 94%
Wind: Variable at 4.6 MPH (4 KT)
Dew Point: 46.4°F
Visibility: 3.00 mi


Airport Weather Forecast for KIDI

Translated METAR and TAF for KIDI
Translated METAR for KIDI (0139 UTC 22 October 2014)
found at http://aviationweather.gov/adds/metars/
 
METAR text: KIDI 220135Z AUTO VRB05KT 2SM BR BKN006 OVC010 09/08 A3002 RMK A01
Conditions at: KIDI (INDIANA/STEWART , PA, US) observed 0135 UTC 22 October 2014
Temperature: 9.0°C (48°F)
Dewpoint: 8.0°C (46°F) [RH = 93%]
Pressure (altimeter): 30.02 inches Hg (1016.7 mb)
Winds: variable direction winds at 6 MPH (5 knots; 2.6 m/s)
Visibility: 2.00 miles (3.22 km)
Ceiling: 600 feet AGL
Clouds: broken clouds at 600 feet AGL
overcast cloud deck at 1000 feet AGL
Weather: BR  (mist)
Translated TAF for KIDI

There is no translated TAF available for this airport

Find All Airport Services Find A Hotel Find A Rental Car Find A Golf Course Find A Restaurant $100 Hamburger



FBO's on the Field
FBO Company Facility Photos Services Transportation Aviation Fuel Prices: Prices include tax
Catering Weather Repair Courtesy Rental Type 100LL JetA JetA+ MOGAS 8087
 
Indiana County Jimmy Stewart Airport

Currently rated 5 by 1 person
FS: Phillips 66
Last Updated: Oct-15
Login to update fuel prices
SS:
Contact Indiana County Jimmy Stewart AirportMore FBO Information
 
Add another FBO Facility Photos Catering Weather Repair Courtesy Rental Type 100LL JetA JetA+ MOGAS 8087
Services Transportation Aviation Fuel Prices: Prices include tax


model-print
model-print
model-print
model-print